sensor_id;sensor_type;location;lat;lon;timestamp;P1;durP1;ratioP1;P2;durP2;ratioP2
57023;SDS011;42916;54.346;18.562;2023-05-29T00:01:26;7.80;;;3.90;;
57023;SDS011;42916;54.346;18.562;2023-05-29T00:03:52;9.60;;;4.20;;
57023;SDS011;42916;54.346;18.562;2023-05-29T00:06:19;9.30;;;4.50;;
57023;SDS011;42916;54.346;18.562;2023-05-29T00:08:45;8.70;;;4.10;;
57023;SDS011;42916;54.346;18.562;2023-05-29T00:11:12;10.40;;;4.00;;
57023;SDS011;42916;54.346;18.562;2023-05-29T00:13:39;8.50;;;4.00;;
57023;SDS011;42916;54.346;18.562;2023-05-29T00:16:08;9.90;;;3.90;;
57023;SDS011;42916;54.346;18.562;2023-05-29T00:18:35;11.90;;;4.30;;
57023;SDS011;42916;54.346;18.562;2023-05-29T00:21:02;11.00;;;4.90;;
57023;SDS011;42916;54.346;18.562;2023-05-29T00:23:28;11.00;;;4.40;;
57023;SDS011;42916;54.346;18.562;2023-05-29T00:25:54;8.70;;;3.90;;
57023;SDS011;42916;54.346;18.562;2023-05-29T00:28:20;9.50;;;4.50;;
57023;SDS011;42916;54.346;18.562;2023-05-29T00:30:47;12.10;;;4.40;;
57023;SDS011;42916;54.346;18.562;2023-05-29T00:33:13;13.90;;;4.70;;
57023;SDS011;42916;54.346;18.562;2023-05-29T00:35:39;10.10;;;4.10;;
57023;SDS011;42916;54.346;18.562;2023-05-29T00:38:06;11.30;;;4.10;;
57023;SDS011;42916;54.346;18.562;2023-05-29T00:40:32;12.80;;;5.90;;
57023;SDS011;42916;54.346;18.562;2023-05-29T00:42:58;11.70;;;4.60;;
57023;SDS011;42916;54.346;18.562;2023-05-29T00:45:25;12.70;;;4.20;;
57023;SDS011;42916;54.346;18.562;2023-05-29T00:47:52;11.40;;;4.20;;
57023;SDS011;42916;54.346;18.562;2023-05-29T00:50:20;9.30;;;4.20;;
57023;SDS011;42916;54.346;18.562;2023-05-29T00:52:47;11.80;;;4.90;;
57023;SDS011;42916;54.346;18.562;2023-05-29T00:55:13;10.30;;;4.50;;
57023;SDS011;42916;54.346;18.562;2023-05-29T00:57:40;10.00;;;4.10;;
57023;SDS011;42916;54.346;18.562;2023-05-29T01:00:07;12.50;;;5.30;;
57023;SDS011;42916;54.346;18.562;2023-05-29T01:02:36;13.00;;;4.20;;
57023;SDS011;42916;54.346;18.562;2023-05-29T01:05:03;11.80;;;4.90;;
57023;SDS011;42916;54.346;18.562;2023-05-29T01:07:32;12.40;;;4.60;;
57023;SDS011;42916;54.346;18.562;2023-05-29T01:09:59;10.80;;;4.20;;
57023;SDS011;42916;54.346;18.562;2023-05-29T01:12:33;10.50;;;4.20;;
57023;SDS011;42916;54.346;18.562;2023-05-29T01:29:28;10.10;;;3.90;;
57023;SDS011;42916;54.346;18.562;2023-05-29T01:31:58;9.20;;;3.80;;
57023;SDS011;42916;54.346;18.562;2023-05-29T01:34:25;10.40;;;4.20;;
57023;SDS011;42916;54.346;18.562;2023-05-29T01:36:51;12.30;;;4.60;;
57023;SDS011;42916;54.346;18.562;2023-05-29T01:39:17;13.00;;;4.30;;
57023;SDS011;42916;54.346;18.562;2023-05-29T01:41:45;10.10;;;4.30;;
57023;SDS011;42916;54.346;18.562;2023-05-29T01:44:12;13.50;;;4.70;;
57023;SDS011;42916;54.346;18.562;2023-05-29T01:46:42;12.00;;;4.60;;
57023;SDS011;42916;54.346;18.562;2023-05-29T01:49:09;10.40;;;4.10;;
57023;SDS011;42916;54.346;18.562;2023-05-29T01:51:37;11.60;;;4.20;;
57023;SDS011;42916;54.346;18.562;2023-05-29T01:54:06;9.20;;;4.20;;
57023;SDS011;42916;54.346;18.562;2023-05-29T01:56:33;9.70;;;4.50;;
57023;SDS011;42916;54.346;18.562;2023-05-29T01:59:00;11.40;;;4.50;;
57023;SDS011;42916;54.346;18.562;2023-05-29T02:01:29;13.60;;;4.80;;
57023;SDS011;42916;54.346;18.562;2023-05-29T02:03:55;13.90;;;4.70;;
57023;SDS011;42916;54.346;18.562;2023-05-29T02:06:21;15.90;;;5.20;;
57023;SDS011;42916;54.346;18.562;2023-05-29T02:08:47;11.70;;;4.70;;
57023;SDS011;42916;54.346;18.562;2023-05-29T02:11:13;13.40;;;4.10;;
57023;SDS011;42916;54.346;18.562;2023-05-29T02:13:41;8.90;;;4.20;;
57023;SDS011;42916;54.346;18.562;2023-05-29T02:16:08;11.30;;;4.60;;
57023;SDS011;42916;54.346;18.562;2023-05-29T02:18:34;13.50;;;4.50;;
57023;SDS011;42916;54.346;18.562;2023-05-29T02:21:00;10.80;;;4.50;;
57023;SDS011;42916;54.346;18.562;2023-05-29T02:23:27;9.70;;;4.10;;
57023;SDS011;42916;54.346;18.562;2023-05-29T02:25:54;12.80;;;4.60;;
57023;SDS011;42916;54.346;18.562;2023-05-29T02:28:20;9.30;;;3.80;;
57023;SDS011;42916;54.346;18.562;2023-05-29T02:30:46;11.70;;;4.00;;
57023;SDS011;42916;54.346;18.562;2023-05-29T02:33:12;10.50;;;4.00;;
57023;SDS011;42916;54.346;18.562;2023-05-29T02:35:38;11.50;;;3.80;;
57023;SDS011;42916;54.346;18.562;2023-05-29T02:38:04;14.70;;;5.10;;
57023;SDS011;42916;54.346;18.562;2023-05-29T02:40:30;10.70;;;4.30;;
57023;SDS011;42916;54.346;18.562;2023-05-29T02:42:57;8.10;;;3.80;;
57023;SDS011;42916;54.346;18.562;2023-05-29T02:45:23;10.10;;;4.30;;
57023;SDS011;42916;54.346;18.562;2023-05-29T02:47:50;8.10;;;4.70;;
57023;SDS011;42916;54.346;18.562;2023-05-29T02:50:16;9.70;;;4.40;;
57023;SDS011;42916;54.346;18.562;2023-05-29T02:52:42;12.10;;;4.30;;
57023;SDS011;42916;54.346;18.562;2023-05-29T02:55:08;6.20;;;3.40;;
57023;SDS011;42916;54.346;18.562;2023-05-29T02:57:34;9.00;;;3.90;;
57023;SDS011;42916;54.346;18.562;2023-05-29T03:00:01;8.00;;;4.10;;
57023;SDS011;42916;54.346;18.562;2023-05-29T03:02:30;10.30;;;4.70;;
57023;SDS011;42916;54.346;18.562;2023-05-29T03:04:56;11.10;;;4.70;;
57023;SDS011;42916;54.346;18.562;2023-05-29T03:07:23;9.10;;;3.90;;
57023;SDS011;42916;54.346;18.562;2023-05-29T03:09:49;10.20;;;4.90;;
57023;SDS011;42916;54.346;18.562;2023-05-29T03:12:16;9.70;;;4.20;;
57023;SDS011;42916;54.346;18.562;2023-05-29T03:14:42;9.30;;;4.50;;
57023;SDS011;42916;54.346;18.562;2023-05-29T03:17:10;11.20;;;4.10;;
57023;SDS011;42916;54.346;18.562;2023-05-29T03:19:37;10.50;;;4.10;;
57023;SDS011;42916;54.346;18.562;2023-05-29T03:22:04;9.40;;;4.20;;
57023;SDS011;42916;54.346;18.562;2023-05-29T03:24:31;11.50;;;5.50;;
57023;SDS011;42916;54.346;18.562;2023-05-29T03:27:01;14.10;;;4.20;;
57023;SDS011;42916;54.346;18.562;2023-05-29T03:29:30;11.60;;;4.80;;
57023;SDS011;42916;54.346;18.562;2023-05-29T03:31:57;10.80;;;4.60;;
57023;SDS011;42916;54.346;18.562;2023-05-29T03:34:26;11.00;;;4.60;;
57023;SDS011;42916;54.346;18.562;2023-05-29T03:36:57;14.50;;;5.30;;
57023;SDS011;42916;54.346;18.562;2023-05-29T03:39:24;9.80;;;4.40;;
57023;SDS011;42916;54.346;18.562;2023-05-29T03:41:50;10.50;;;4.30;;
57023;SDS011;42916;54.346;18.562;2023-05-29T03:44:17;10.90;;;5.00;;
57023;SDS011;42916;54.346;18.562;2023-05-29T03:46:43;10.30;;;4.70;;
57023;SDS011;42916;54.346;18.562;2023-05-29T03:49:10;16.90;;;4.80;;
57023;SDS011;42916;54.346;18.562;2023-05-29T03:51:36;9.70;;;4.50;;
57023;SDS011;42916;54.346;18.562;2023-05-29T03:54:03;7.20;;;4.20;;
57023;SDS011;42916;54.346;18.562;2023-05-29T03:56:29;9.20;;;4.30;;
57023;SDS011;42916;54.346;18.562;2023-05-29T03:58:56;9.00;;;4.10;;
57023;SDS011;42916;54.346;18.562;2023-05-29T04:01:22;9.70;;;4.40;;
57023;SDS011;42916;54.346;18.562;2023-05-29T04:03:48;10.70;;;4.60;;
57023;SDS011;42916;54.346;18.562;2023-05-29T04:06:14;11.80;;;5.10;;
57023;SDS011;42916;54.346;18.562;2023-05-29T04:08:40;11.20;;;4.90;;
57023;SDS011;42916;54.346;18.562;2023-05-29T04:11:08;12.50;;;5.00;;
57023;SDS011;42916;54.346;18.562;2023-05-29T04:13:34;10.50;;;4.40;;
57023;SDS011;42916;54.346;18.562;2023-05-29T04:16:00;10.20;;;3.90;;
57023;SDS011;42916;54.346;18.562;2023-05-29T04:18:26;9.30;;;3.70;;
57023;SDS011;42916;54.346;18.562;2023-05-29T04:20:52;11.30;;;4.00;;
57023;SDS011;42916;54.346;18.562;2023-05-29T04:23:19;11.50;;;4.50;;
57023;SDS011;42916;54.346;18.562;2023-05-29T04:25:46;9.90;;;3.80;;
57023;SDS011;42916;54.346;18.562;2023-05-29T04:28:14;11.50;;;3.90;;
57023;SDS011;42916;54.346;18.562;2023-05-29T04:30:41;8.70;;;4.00;;
57023;SDS011;42916;54.346;18.562;2023-05-29T04:33:07;6.70;;;2.60;;
57023;SDS011;42916;54.346;18.562;2023-05-29T04:35:35;6.20;;;3.20;;
57023;SDS011;42916;54.346;18.562;2023-05-29T04:38:03;10.90;;;3.90;;
57023;SDS011;42916;54.346;18.562;2023-05-29T04:40:30;9.60;;;4.00;;
57023;SDS011;42916;54.346;18.562;2023-05-29T04:42:57;9.60;;;3.50;;
57023;SDS011;42916;54.346;18.562;2023-05-29T04:45:27;14.00;;;3.70;;
57023;SDS011;42916;54.346;18.562;2023-05-29T04:47:54;10.50;;;4.20;;
57023;SDS011;42916;54.346;18.562;2023-05-29T04:50:21;9.30;;;3.80;;
57023;SDS011;42916;54.346;18.562;2023-05-29T04:52:48;14.30;;;3.70;;
57023;SDS011;42916;54.346;18.562;2023-05-29T04:55:15;8.70;;;3.20;;
57023;SDS011;42916;54.346;18.562;2023-05-29T04:57:42;9.90;;;2.80;;
57023;SDS011;42916;54.346;18.562;2023-05-29T05:00:09;10.20;;;2.90;;
57023;SDS011;42916;54.346;18.562;2023-05-29T05:02:43;10.80;;;2.80;;
57023;SDS011;42916;54.346;18.562;2023-05-29T05:05:09;8.00;;;3.00;;
57023;SDS011;42916;54.346;18.562;2023-05-29T05:07:37;7.10;;;2.50;;
57023;SDS011;42916;54.346;18.562;2023-05-29T05:10:03;8.70;;;2.40;;
57023;SDS011;42916;54.346;18.562;2023-05-29T05:12:30;6.10;;;2.70;;
57023;SDS011;42916;54.346;18.562;2023-05-29T05:14:56;6.70;;;2.20;;
57023;SDS011;42916;54.346;18.562;2023-05-29T05:17:24;9.80;;;2.50;;
57023;SDS011;42916;54.346;18.562;2023-05-29T05:19:50;8.90;;;3.20;;
57023;SDS011;42916;54.346;18.562;2023-05-29T05:22:18;13.30;;;3.30;;
57023;SDS011;42916;54.346;18.562;2023-05-29T05:24:44;12.30;;;2.80;;
57023;SDS011;42916;54.346;18.562;2023-05-29T05:27:10;9.30;;;2.60;;
57023;SDS011;42916;54.346;18.562;2023-05-29T05:29:37;10.90;;;2.30;;
57023;SDS011;42916;54.346;18.562;2023-05-29T05:32:03;16.20;;;2.70;;
57023;SDS011;42916;54.346;18.562;2023-05-29T05:34:30;14.10;;;2.70;;
57023;SDS011;42916;54.346;18.562;2023-05-29T05:36:56;10.50;;;2.80;;
57023;SDS011;42916;54.346;18.562;2023-05-29T05:39:23;17.10;;;2.90;;
57023;SDS011;42916;54.346;18.562;2023-05-29T05:41:49;11.00;;;3.00;;
57023;SDS011;42916;54.346;18.562;2023-05-29T05:44:22;9.00;;;2.50;;
57023;SDS011;42916;54.346;18.562;2023-05-29T05:46:58;12.50;;;2.50;;
57023;SDS011;42916;54.346;18.562;2023-05-29T05:49:25;11.90;;;2.40;;
57023;SDS011;42916;54.346;18.562;2023-05-29T05:51:51;5.50;;;1.70;;
57023;SDS011;42916;54.346;18.562;2023-05-29T05:54:17;9.90;;;2.20;;
57023;SDS011;42916;54.346;18.562;2023-05-29T05:56:43;8.10;;;2.00;;
57023;SDS011;42916;54.346;18.562;2023-05-29T05:59:10;7.40;;;2.30;;
57023;SDS011;42916;54.346;18.562;2023-05-29T06:01:36;8.50;;;1.90;;
57023;SDS011;42916;54.346;18.562;2023-05-29T06:04:03;7.30;;;2.10;;
57023;SDS011;42916;54.346;18.562;2023-05-29T06:06:30;8.30;;;1.70;;
57023;SDS011;42916;54.346;18.562;2023-05-29T06:08:57;10.00;;;2.10;;
57023;SDS011;42916;54.346;18.562;2023-05-29T06:11:24;9.40;;;1.90;;
57023;SDS011;42916;54.346;18.562;2023-05-29T06:13:51;6.80;;;2.00;;
57023;SDS011;42916;54.346;18.562;2023-05-29T06:16:23;10.30;;;2.20;;
57023;SDS011;42916;54.346;18.562;2023-05-29T06:18:50;9.50;;;2.20;;
57023;SDS011;42916;54.346;18.562;2023-05-29T06:21:17;7.60;;;2.10;;
57023;SDS011;42916;54.346;18.562;2023-05-29T06:23:50;10.80;;;2.10;;
57023;SDS011;42916;54.346;18.562;2023-05-29T06:26:16;6.20;;;1.80;;
57023;SDS011;42916;54.346;18.562;2023-05-29T06:28:43;9.80;;;1.90;;
57023;SDS011;42916;54.346;18.562;2023-05-29T06:31:09;7.50;;;2.10;;
57023;SDS011;42916;54.346;18.562;2023-05-29T06:33:35;7.50;;;2.20;;
57023;SDS011;42916;54.346;18.562;2023-05-29T06:36:04;6.90;;;2.00;;
57023;SDS011;42916;54.346;18.562;2023-05-29T06:38:31;9.20;;;2.00;;
57023;SDS011;42916;54.346;18.562;2023-05-29T06:40:57;9.30;;;2.10;;
57023;SDS011;42916;54.346;18.562;2023-05-29T06:43:23;6.00;;;2.20;;
57023;SDS011;42916;54.346;18.562;2023-05-29T06:45:54;8.80;;;1.80;;
57023;SDS011;42916;54.346;18.562;2023-05-29T06:48:21;7.80;;;2.10;;
57023;SDS011;42916;54.346;18.562;2023-05-29T06:50:47;8.50;;;2.70;;
57023;SDS011;42916;54.346;18.562;2023-05-29T06:53:42;9.80;;;1.60;;
57023;SDS011;42916;54.346;18.562;2023-05-29T06:56:11;9.20;;;2.00;;
57023;SDS011;42916;54.346;18.562;2023-05-29T06:58:37;5.30;;;1.70;;
57023;SDS011;42916;54.346;18.562;2023-05-29T07:01:03;9.30;;;2.30;;
57023;SDS011;42916;54.346;18.562;2023-05-29T07:03:32;6.80;;;1.90;;
57023;SDS011;42916;54.346;18.562;2023-05-29T07:06:01;7.30;;;1.90;;
57023;SDS011;42916;54.346;18.562;2023-05-29T07:08:27;6.60;;;2.10;;
57023;SDS011;42916;54.346;18.562;2023-05-29T07:10:53;6.00;;;1.80;;
57023;SDS011;42916;54.346;18.562;2023-05-29T07:13:20;5.50;;;1.60;;
57023;SDS011;42916;54.346;18.562;2023-05-29T07:15:47;6.10;;;1.70;;
57023;SDS011;42916;54.346;18.562;2023-05-29T07:18:14;8.10;;;1.60;;
57023;SDS011;42916;54.346;18.562;2023-05-29T07:20:41;4.90;;;1.70;;
57023;SDS011;42916;54.346;18.562;2023-05-29T07:23:18;6.00;;;1.70;;
57023;SDS011;42916;54.346;18.562;2023-05-29T07:25:44;8.10;;;1.80;;
57023;SDS011;42916;54.346;18.562;2023-05-29T07:28:10;8.90;;;1.80;;
57023;SDS011;42916;54.346;18.562;2023-05-29T07:30:48;9.70;;;2.10;;
57023;SDS011;42916;54.346;18.562;2023-05-29T07:33:14;16.30;;;2.80;;
57023;SDS011;42916;54.346;18.562;2023-05-29T07:35:41;10.30;;;1.80;;
57023;SDS011;42916;54.346;18.562;2023-05-29T07:38:07;6.40;;;1.70;;
57023;SDS011;42916;54.346;18.562;2023-05-29T07:40:34;8.10;;;1.90;;
57023;SDS011;42916;54.346;18.562;2023-05-29T07:43:20;8.20;;;1.70;;
57023;SDS011;42916;54.346;18.562;2023-05-29T07:48:15;10.30;;;1.60;;
57023;SDS011;42916;54.346;18.562;2023-05-29T07:50:41;6.80;;;2.10;;
57023;SDS011;42916;54.346;18.562;2023-05-29T07:53:08;4.60;;;1.40;;
57023;SDS011;42916;54.346;18.562;2023-05-29T07:55:36;6.70;;;1.60;;
57023;SDS011;42916;54.346;18.562;2023-05-29T07:58:02;7.90;;;2.10;;
57023;SDS011;42916;54.346;18.562;2023-05-29T08:00:29;6.30;;;1.70;;
57023;SDS011;42916;54.346;18.562;2023-05-29T08:02:55;3.00;;;1.70;;
57023;SDS011;42916;54.346;18.562;2023-05-29T08:05:43;8.30;;;2.10;;
57023;SDS011;42916;54.346;18.562;2023-05-29T08:08:11;7.80;;;1.70;;
57023;SDS011;42916;54.346;18.562;2023-05-29T08:10:38;4.80;;;1.50;;
57023;SDS011;42916;54.346;18.562;2023-05-29T08:13:05;5.40;;;1.60;;
57023;SDS011;42916;54.346;18.562;2023-05-29T08:15:33;4.20;;;1.50;;
57023;SDS011;42916;54.346;18.562;2023-05-29T08:18:00;6.80;;;1.80;;
57023;SDS011;42916;54.346;18.562;2023-05-29T08:20:26;4.30;;;1.50;;
57023;SDS011;42916;54.346;18.562;2023-05-29T08:22:52;8.20;;;1.70;;
57023;SDS011;42916;54.346;18.562;2023-05-29T08:25:18;6.50;;;1.50;;
57023;SDS011;42916;54.346;18.562;2023-05-29T08:27:44;8.90;;;1.40;;
57023;SDS011;42916;54.346;18.562;2023-05-29T08:30:10;5.90;;;1.70;;
57023;SDS011;42916;54.346;18.562;2023-05-29T08:32:37;7.20;;;1.90;;
57023;SDS011;42916;54.346;18.562;2023-05-29T08:35:03;7.00;;;1.60;;
57023;SDS011;42916;54.346;18.562;2023-05-29T08:37:30;8.10;;;1.70;;
57023;SDS011;42916;54.346;18.562;2023-05-29T08:39:56;9.20;;;1.80;;
57023;SDS011;42916;54.346;18.562;2023-05-29T08:42:29;5.90;;;1.40;;
57023;SDS011;42916;54.346;18.562;2023-05-29T08:45:00;5.20;;;1.70;;
57023;SDS011;42916;54.346;18.562;2023-05-29T08:47:28;3.40;;;1.30;;
57023;SDS011;42916;54.346;18.562;2023-05-29T08:49:58;6.80;;;1.60;;
57023;SDS011;42916;54.346;18.562;2023-05-29T08:52:26;4.70;;;1.60;;
57023;SDS011;42916;54.346;18.562;2023-05-29T08:54:55;5.20;;;1.80;;
57023;SDS011;42916;54.346;18.562;2023-05-29T08:57:22;5.30;;;1.40;;
57023;SDS011;42916;54.346;18.562;2023-05-29T08:59:51;4.70;;;1.50;;
57023;SDS011;42916;54.346;18.562;2023-05-29T09:02:17;4.40;;;1.50;;
57023;SDS011;42916;54.346;18.562;2023-05-29T09:04:44;5.20;;;1.60;;
57023;SDS011;42916;54.346;18.562;2023-05-29T09:07:11;7.70;;;1.60;;
57023;SDS011;42916;54.346;18.562;2023-05-29T09:09:38;5.50;;;1.40;;
57023;SDS011;42916;54.346;18.562;2023-05-29T09:12:04;3.80;;;1.50;;
57023;SDS011;42916;54.346;18.562;2023-05-29T09:14:37;6.00;;;1.40;;
57023;SDS011;42916;54.346;18.562;2023-05-29T09:17:08;4.90;;;1.40;;
57023;SDS011;42916;54.346;18.562;2023-05-29T09:19:35;4.10;;;1.20;;
57023;SDS011;42916;54.346;18.562;2023-05-29T09:22:05;5.90;;;1.50;;
57023;SDS011;42916;54.346;18.562;2023-05-29T09:24:33;5.60;;;1.50;;
57023;SDS011;42916;54.346;18.562;2023-05-29T09:27:02;7.10;;;1.80;;
57023;SDS011;42916;54.346;18.562;2023-05-29T09:29:37;6.80;;;1.40;;
57023;SDS011;42916;54.346;18.562;2023-05-29T09:32:08;3.80;;;1.40;;
57023;SDS011;42916;54.346;18.562;2023-05-29T09:34:35;8.30;;;1.60;;
57023;SDS011;42916;54.346;18.562;2023-05-29T09:37:08;3.80;;;1.40;;
57023;SDS011;42916;54.346;18.562;2023-05-29T09:39:48;5.30;;;1.50;;
57023;SDS011;42916;54.346;18.562;2023-05-29T09:42:15;7.20;;;1.20;;
57023;SDS011;42916;54.346;18.562;2023-05-29T09:44:42;4.10;;;1.00;;
57023;SDS011;42916;54.346;18.562;2023-05-29T09:47:16;3.10;;;1.20;;
57023;SDS011;42916;54.346;18.562;2023-05-29T09:49:44;3.50;;;1.30;;
57023;SDS011;42916;54.346;18.562;2023-05-29T09:52:12;6.50;;;1.40;;
57023;SDS011;42916;54.346;18.562;2023-05-29T09:54:43;4.00;;;1.30;;
57023;SDS011;42916;54.346;18.562;2023-05-29T09:57:12;5.40;;;1.30;;
57023;SDS011;42916;54.346;18.562;2023-05-29T09:59:43;2.50;;;1.10;;
57023;SDS011;42916;54.346;18.562;2023-05-29T10:02:19;3.90;;;1.00;;
57023;SDS011;42916;54.346;18.562;2023-05-29T10:04:45;2.70;;;1.10;;
57023;SDS011;42916;54.346;18.562;2023-05-29T10:07:22;5.40;;;1.20;;
57023;SDS011;42916;54.346;18.562;2023-05-29T10:09:55;3.40;;;1.00;;
57023;SDS011;42916;54.346;18.562;2023-05-29T10:12:27;3.70;;;1.10;;
57023;SDS011;42916;54.346;18.562;2023-05-29T10:14:56;6.20;;;1.60;;
57023;SDS011;42916;54.346;18.562;2023-05-29T10:17:26;6.00;;;1.10;;
57023;SDS011;42916;54.346;18.562;2023-05-29T10:19:58;7.80;;;1.40;;
57023;SDS011;42916;54.346;18.562;2023-05-29T10:22:28;9.10;;;2.00;;
57023;SDS011;42916;54.346;18.562;2023-05-29T10:24:57;8.90;;;1.30;;
57023;SDS011;42916;54.346;18.562;2023-05-29T10:27:23;7.60;;;1.60;;
57023;SDS011;42916;54.346;18.562;2023-05-29T10:32:39;10.50;;;1.50;;
57023;SDS011;42916;54.346;18.562;2023-05-29T10:35:28;4.10;;;1.40;;
57023;SDS011;42916;54.346;18.562;2023-05-29T10:38:10;6.50;;;1.30;;
57023;SDS011;42916;54.346;18.562;2023-05-29T10:40:39;10.50;;;1.40;;
57023;SDS011;42916;54.346;18.562;2023-05-29T10:43:05;5.40;;;1.20;;
57023;SDS011;42916;54.346;18.562;2023-05-29T10:53:09;11.10;;;1.80;;
57023;SDS011;42916;54.346;18.562;2023-05-29T10:55:39;7.10;;;1.30;;
57023;SDS011;42916;54.346;18.562;2023-05-29T10:58:07;7.10;;;1.30;;
57023;SDS011;42916;54.346;18.562;2023-05-29T11:00:34;5.60;;;1.20;;
57023;SDS011;42916;54.346;18.562;2023-05-29T11:03:07;6.10;;;1.10;;
57023;SDS011;42916;54.346;18.562;2023-05-29T11:05:34;5.40;;;1.10;;
57023;SDS011;42916;54.346;18.562;2023-05-29T11:08:01;6.00;;;1.20;;
57023;SDS011;42916;54.346;18.562;2023-05-29T11:13:25;5.90;;;1.30;;
57023;SDS011;42916;54.346;18.562;2023-05-29T11:16:14;7.60;;;1.00;;
57023;SDS011;42916;54.346;18.562;2023-05-29T11:18:43;4.20;;;1.40;;
57023;SDS011;42916;54.346;18.562;2023-05-29T11:21:22;9.70;;;1.30;;
57023;SDS011;42916;54.346;18.562;2023-05-29T11:23:55;9.30;;;1.40;;
57023;SDS011;42916;54.346;18.562;2023-05-29T11:26:29;5.30;;;1.50;;
57023;SDS011;42916;54.346;18.562;2023-05-29T11:29:00;5.00;;;1.30;;
57023;SDS011;42916;54.346;18.562;2023-05-29T11:31:27;3.70;;;0.90;;
57023;SDS011;42916;54.346;18.562;2023-05-29T11:33:58;7.10;;;1.50;;
57023;SDS011;42916;54.346;18.562;2023-05-29T11:36:25;6.90;;;1.90;;
57023;SDS011;42916;54.346;18.562;2023-05-29T11:38:53;5.80;;;1.40;;
57023;SDS011;42916;54.346;18.562;2023-05-29T11:41:19;5.70;;;1.30;;
57023;SDS011;42916;54.346;18.562;2023-05-29T11:44:02;6.60;;;1.30;;
57023;SDS011;42916;54.346;18.562;2023-05-29T11:46:29;7.90;;;1.20;;
57023;SDS011;42916;54.346;18.562;2023-05-29T11:48:58;5.30;;;1.20;;
57023;SDS011;42916;54.346;18.562;2023-05-29T11:51:25;5.40;;;1.30;;
57023;SDS011;42916;54.346;18.562;2023-05-29T11:53:51;5.30;;;1.30;;
57023;SDS011;42916;54.346;18.562;2023-05-29T11:56:26;5.00;;;1.10;;
57023;SDS011;42916;54.346;18.562;2023-05-29T11:58:54;6.20;;;1.10;;
57023;SDS011;42916;54.346;18.562;2023-05-29T12:01:22;4.10;;;0.90;;
57023;SDS011;42916;54.346;18.562;2023-05-29T12:03:50;5.20;;;1.10;;
57023;SDS011;42916;54.346;18.562;2023-05-29T12:06:33;6.20;;;1.10;;
57023;SDS011;42916;54.346;18.562;2023-05-29T12:09:02;3.90;;;1.00;;
57023;SDS011;42916;54.346;18.562;2023-05-29T12:11:30;7.00;;;1.30;;
57023;SDS011;42916;54.346;18.562;2023-05-29T12:13:57;4.20;;;1.20;;
57023;SDS011;42916;54.346;18.562;2023-05-29T12:16:25;6.60;;;1.60;;
57023;SDS011;42916;54.346;18.562;2023-05-29T12:18:53;4.70;;;1.20;;
57023;SDS011;42916;54.346;18.562;2023-05-29T12:21:20;6.00;;;1.00;;
57023;SDS011;42916;54.346;18.562;2023-05-29T12:23:47;9.20;;;1.40;;
57023;SDS011;42916;54.346;18.562;2023-05-29T12:26:13;5.50;;;1.10;;
57023;SDS011;42916;54.346;18.562;2023-05-29T12:28:44;5.20;;;1.10;;
57023;SDS011;42916;54.346;18.562;2023-05-29T12:31:11;5.50;;;1.10;;
57023;SDS011;42916;54.346;18.562;2023-05-29T12:33:40;2.80;;;1.00;;
57023;SDS011;42916;54.346;18.562;2023-05-29T12:36:09;4.80;;;1.00;;
57023;SDS011;42916;54.346;18.562;2023-05-29T12:38:47;4.50;;;1.10;;
57023;SDS011;42916;54.346;18.562;2023-05-29T12:43:52;4.40;;;1.10;;
57023;SDS011;42916;54.346;18.562;2023-05-29T12:46:21;7.40;;;1.10;;
57023;SDS011;42916;54.346;18.562;2023-05-29T12:48:47;5.10;;;1.30;;
57023;SDS011;42916;54.346;18.562;2023-05-29T12:51:13;4.40;;;1.30;;
57023;SDS011;42916;54.346;18.562;2023-05-29T12:53:39;3.40;;;1.10;;
57023;SDS011;42916;54.346;18.562;2023-05-29T12:56:05;5.80;;;1.30;;
57023;SDS011;42916;54.346;18.562;2023-05-29T12:58:31;5.20;;;1.10;;
57023;SDS011;42916;54.346;18.562;2023-05-29T13:00:57;5.40;;;1.10;;
57023;SDS011;42916;54.346;18.562;2023-05-29T13:03:23;5.50;;;1.10;;
57023;SDS011;42916;54.346;18.562;2023-05-29T13:05:50;6.90;;;1.00;;
57023;SDS011;42916;54.346;18.562;2023-05-29T13:08:16;3.20;;;0.90;;
57023;SDS011;42916;54.346;18.562;2023-05-29T13:10:43;4.60;;;1.20;;
57023;SDS011;42916;54.346;18.562;2023-05-29T13:13:10;5.30;;;1.30;;
57023;SDS011;42916;54.346;18.562;2023-05-29T13:15:37;4.60;;;1.40;;
57023;SDS011;42916;54.346;18.562;2023-05-29T13:18:06;7.00;;;1.40;;
57023;SDS011;42916;54.346;18.562;2023-05-29T13:20:32;7.00;;;1.20;;
57023;SDS011;42916;54.346;18.562;2023-05-29T13:22:58;6.80;;;1.20;;
57023;SDS011;42916;54.346;18.562;2023-05-29T13:25:24;4.50;;;1.30;;
57023;SDS011;42916;54.346;18.562;2023-05-29T13:27:51;8.60;;;1.30;;
57023;SDS011;42916;54.346;18.562;2023-05-29T13:30:18;6.70;;;1.40;;
57023;SDS011;42916;54.346;18.562;2023-05-29T13:32:44;6.80;;;1.60;;
57023;SDS011;42916;54.346;18.562;2023-05-29T13:35:10;8.90;;;1.80;;
57023;SDS011;42916;54.346;18.562;2023-05-29T13:37:37;8.30;;;1.30;;
57023;SDS011;42916;54.346;18.562;2023-05-29T13:40:04;6.50;;;1.60;;
57023;SDS011;42916;54.346;18.562;2023-05-29T13:42:32;6.00;;;1.40;;
57023;SDS011;42916;54.346;18.562;2023-05-29T13:44:58;6.50;;;1.20;;
57023;SDS011;42916;54.346;18.562;2023-05-29T13:47:24;4.50;;;1.20;;
57023;SDS011;42916;54.346;18.562;2023-05-29T13:49:54;4.90;;;1.40;;
57023;SDS011;42916;54.346;18.562;2023-05-29T13:52:20;6.90;;;1.40;;
57023;SDS011;42916;54.346;18.562;2023-05-29T13:54:46;4.90;;;1.30;;
57023;SDS011;42916;54.346;18.562;2023-05-29T13:57:12;4.40;;;1.40;;
57023;SDS011;42916;54.346;18.562;2023-05-29T13:59:38;7.20;;;1.90;;
57023;SDS011;42916;54.346;18.562;2023-05-29T14:02:04;7.10;;;1.30;;
57023;SDS011;42916;54.346;18.562;2023-05-29T14:04:31;7.90;;;1.20;;
57023;SDS011;42916;54.346;18.562;2023-05-29T14:06:57;5.80;;;1.40;;
57023;SDS011;42916;54.346;18.562;2023-05-29T14:09:24;7.40;;;1.50;;
57023;SDS011;42916;54.346;18.562;2023-05-29T14:11:57;5.10;;;1.40;;
57023;SDS011;42916;54.346;18.562;2023-05-29T14:14:25;6.60;;;1.60;;
57023;SDS011;42916;54.346;18.562;2023-05-29T14:16:52;8.10;;;1.80;;
57023;SDS011;42916;54.346;18.562;2023-05-29T14:19:21;8.80;;;1.60;;
57023;SDS011;42916;54.346;18.562;2023-05-29T14:21:48;6.00;;;1.80;;
57023;SDS011;42916;54.346;18.562;2023-05-29T14:24:14;4.80;;;1.20;;
57023;SDS011;42916;54.346;18.562;2023-05-29T14:26:41;6.90;;;1.40;;
57023;SDS011;42916;54.346;18.562;2023-05-29T14:29:11;6.10;;;1.40;;
57023;SDS011;42916;54.346;18.562;2023-05-29T14:31:37;4.80;;;1.00;;
57023;SDS011;42916;54.346;18.562;2023-05-29T14:34:03;7.40;;;1.70;;
57023;SDS011;42916;54.346;18.562;2023-05-29T14:36:29;5.70;;;1.30;;
57023;SDS011;42916;54.346;18.562;2023-05-29T14:38:55;7.90;;;1.70;;
57023;SDS011;42916;54.346;18.562;2023-05-29T14:41:21;7.70;;;1.40;;
57023;SDS011;42916;54.346;18.562;2023-05-29T14:43:47;5.60;;;1.20;;
57023;SDS011;42916;54.346;18.562;2023-05-29T14:46:13;6.00;;;1.30;;
57023;SDS011;42916;54.346;18.562;2023-05-29T14:48:39;7.10;;;1.50;;
57023;SDS011;42916;54.346;18.562;2023-05-29T14:51:05;7.00;;;1.70;;
57023;SDS011;42916;54.346;18.562;2023-05-29T14:53:31;7.40;;;1.50;;
57023;SDS011;42916;54.346;18.562;2023-05-29T14:55:58;6.30;;;1.60;;
57023;SDS011;42916;54.346;18.562;2023-05-29T14:58:24;8.30;;;1.50;;
57023;SDS011;42916;54.346;18.562;2023-05-29T15:00:50;8.10;;;1.50;;
57023;SDS011;42916;54.346;18.562;2023-05-29T15:03:16;5.60;;;1.40;;
57023;SDS011;42916;54.346;18.562;2023-05-29T15:05:42;7.20;;;1.70;;
57023;SDS011;42916;54.346;18.562;2023-05-29T15:08:08;4.80;;;1.50;;